sensor_id;sensor_type;location;lat;lon;timestamp;P1;durP1;ratioP1;P2;durP2;ratioP2
15603;SDS011;7902;49.042;9.092;2023-07-08T00:01:54;30.30;;;7.30;;
15603;SDS011;7902;49.042;9.092;2023-07-08T00:04:20;27.57;;;7.47;;
15603;SDS011;7902;49.042;9.092;2023-07-08T00:06:47;28.27;;;7.70;;
15603;SDS011;7902;49.042;9.092;2023-07-08T00:09:15;28.43;;;6.80;;
15603;SDS011;7902;49.042;9.092;2023-07-08T00:11:40;25.53;;;6.00;;
15603;SDS011;7902;49.042;9.092;2023-07-08T00:14:06;25.87;;;6.70;;
15603;SDS011;7902;49.042;9.092;2023-07-08T00:16:32;28.33;;;7.10;;
15603;SDS011;7902;49.042;9.092;2023-07-08T00:19:00;26.43;;;6.80;;
15603;SDS011;7902;49.042;9.092;2023-07-08T00:21:26;30.53;;;7.67;;
15603;SDS011;7902;49.042;9.092;2023-07-08T00:23:52;28.07;;;6.63;;
15603;SDS011;7902;49.042;9.092;2023-07-08T00:26:28;29.07;;;6.63;;
15603;SDS011;7902;49.042;9.092;2023-07-08T00:28:56;25.20;;;6.30;;
15603;SDS011;7902;49.042;9.092;2023-07-08T00:31:22;30.13;;;7.00;;
15603;SDS011;7902;49.042;9.092;2023-07-08T00:33:49;26.47;;;6.10;;
15603;SDS011;7902;49.042;9.092;2023-07-08T00:36:16;39.00;;;10.00;;
15603;SDS011;7902;49.042;9.092;2023-07-08T00:38:43;29.30;;;8.97;;
15603;SDS011;7902;49.042;9.092;2023-07-08T00:41:18;35.03;;;11.80;;
15603;SDS011;7902;49.042;9.092;2023-07-08T00:43:49;33.87;;;11.27;;
15603;SDS011;7902;49.042;9.092;2023-07-08T00:51:36;27.00;;;6.60;;
15603;SDS011;7902;49.042;9.092;2023-07-08T00:54:03;29.97;;;7.40;;
15603;SDS011;7902;49.042;9.092;2023-07-08T00:56:32;26.17;;;6.47;;
15603;SDS011;7902;49.042;9.092;2023-07-08T00:59:12;26.30;;;6.90;;
15603;SDS011;7902;49.042;9.092;2023-07-08T01:01:45;28.47;;;6.70;;
15603;SDS011;7902;49.042;9.092;2023-07-08T01:04:13;25.50;;;6.10;;
15603;SDS011;7902;49.042;9.092;2023-07-08T01:06:44;26.30;;;6.47;;
15603;SDS011;7902;49.042;9.092;2023-07-08T01:09:13;33.77;;;7.07;;
15603;SDS011;7902;49.042;9.092;2023-07-08T01:11:41;40.33;;;6.90;;
15603;SDS011;7902;49.042;9.092;2023-07-08T01:14:08;25.40;;;6.27;;
15603;SDS011;7902;49.042;9.092;2023-07-08T01:16:37;29.13;;;6.27;;
15603;SDS011;7902;49.042;9.092;2023-07-08T01:19:03;28.83;;;6.90;;
15603;SDS011;7902;49.042;9.092;2023-07-08T01:21:33;29.53;;;6.27;;
15603;SDS011;7902;49.042;9.092;2023-07-08T01:23:59;26.00;;;5.93;;
15603;SDS011;7902;49.042;9.092;2023-07-08T01:26:28;28.90;;;6.80;;
15603;SDS011;7902;49.042;9.092;2023-07-08T01:28:55;33.43;;;12.27;;
15603;SDS011;7902;49.042;9.092;2023-07-08T01:31:22;35.20;;;9.27;;
15603;SDS011;7902;49.042;9.092;2023-07-08T01:33:48;37.40;;;13.10;;
15603;SDS011;7902;49.042;9.092;2023-07-08T01:36:16;27.73;;;7.20;;
15603;SDS011;7902;49.042;9.092;2023-07-08T01:38:43;29.03;;;6.60;;
15603;SDS011;7902;49.042;9.092;2023-07-08T01:41:14;27.40;;;7.03;;
15603;SDS011;7902;49.042;9.092;2023-07-08T01:43:41;28.17;;;5.97;;
15603;SDS011;7902;49.042;9.092;2023-07-08T01:46:11;28.13;;;6.80;;
15603;SDS011;7902;49.042;9.092;2023-07-08T01:48:45;24.50;;;5.67;;
15603;SDS011;7902;49.042;9.092;2023-07-08T01:51:16;32.73;;;7.67;;
15603;SDS011;7902;49.042;9.092;2023-07-08T01:53:43;27.57;;;7.10;;
15603;SDS011;7902;49.042;9.092;2023-07-08T01:56:10;27.60;;;6.77;;
15603;SDS011;7902;49.042;9.092;2023-07-08T01:58:37;27.13;;;6.90;;
15603;SDS011;7902;49.042;9.092;2023-07-08T02:01:04;25.00;;;5.60;;
15603;SDS011;7902;49.042;9.092;2023-07-08T02:03:30;25.07;;;6.10;;
15603;SDS011;7902;49.042;9.092;2023-07-08T02:05:56;27.03;;;6.47;;
15603;SDS011;7902;49.042;9.092;2023-07-08T02:08:22;25.17;;;6.37;;
15603;SDS011;7902;49.042;9.092;2023-07-08T02:10:50;26.83;;;6.77;;
15603;SDS011;7902;49.042;9.092;2023-07-08T02:13:18;24.00;;;5.83;;
15603;SDS011;7902;49.042;9.092;2023-07-08T02:15:44;34.87;;;6.80;;
15603;SDS011;7902;49.042;9.092;2023-07-08T02:18:10;27.10;;;7.00;;
15603;SDS011;7902;49.042;9.092;2023-07-08T02:20:36;27.07;;;6.30;;
15603;SDS011;7902;49.042;9.092;2023-07-08T02:23:02;28.60;;;6.43;;
15603;SDS011;7902;49.042;9.092;2023-07-08T02:25:28;25.40;;;5.57;;
15603;SDS011;7902;49.042;9.092;2023-07-08T02:27:54;25.47;;;6.00;;
15603;SDS011;7902;49.042;9.092;2023-07-08T02:30:23;26.30;;;6.27;;
15603;SDS011;7902;49.042;9.092;2023-07-08T02:32:52;30.40;;;6.00;;
15603;SDS011;7902;49.042;9.092;2023-07-08T02:35:28;28.17;;;6.70;;
15603;SDS011;7902;49.042;9.092;2023-07-08T02:37:55;27.83;;;6.43;;
15603;SDS011;7902;49.042;9.092;2023-07-08T02:40:22;26.70;;;6.60;;
15603;SDS011;7902;49.042;9.092;2023-07-08T02:42:48;24.90;;;6.03;;
15603;SDS011;7902;49.042;9.092;2023-07-08T02:45:14;24.17;;;5.90;;
15603;SDS011;7902;49.042;9.092;2023-07-08T02:47:41;25.60;;;6.37;;
15603;SDS011;7902;49.042;9.092;2023-07-08T02:50:08;26.20;;;6.20;;
15603;SDS011;7902;49.042;9.092;2023-07-08T02:52:35;26.73;;;6.20;;
15603;SDS011;7902;49.042;9.092;2023-07-08T02:55:01;30.90;;;6.37;;
15603;SDS011;7902;49.042;9.092;2023-07-08T02:57:28;28.80;;;6.43;;
15603;SDS011;7902;49.042;9.092;2023-07-08T02:59:54;23.63;;;5.37;;
15603;SDS011;7902;49.042;9.092;2023-07-08T03:02:23;28.50;;;7.37;;
15603;SDS011;7902;49.042;9.092;2023-07-08T03:04:49;27.33;;;6.30;;
15603;SDS011;7902;49.042;9.092;2023-07-08T03:07:16;26.13;;;6.30;;
15603;SDS011;7902;49.042;9.092;2023-07-08T03:09:42;26.60;;;6.30;;
15603;SDS011;7902;49.042;9.092;2023-07-08T03:12:09;26.60;;;6.17;;
15603;SDS011;7902;49.042;9.092;2023-07-08T03:14:36;28.20;;;5.93;;
15603;SDS011;7902;49.042;9.092;2023-07-08T03:17:03;27.53;;;5.90;;
15603;SDS011;7902;49.042;9.092;2023-07-08T03:19:30;27.33;;;5.60;;
15603;SDS011;7902;49.042;9.092;2023-07-08T03:21:56;26.13;;;5.40;;
15603;SDS011;7902;49.042;9.092;2023-07-08T03:24:22;26.97;;;6.43;;
15603;SDS011;7902;49.042;9.092;2023-07-08T03:26:47;25.07;;;6.07;;
15603;SDS011;7902;49.042;9.092;2023-07-08T03:29:17;26.30;;;6.83;;
15603;SDS011;7902;49.042;9.092;2023-07-08T03:31:44;24.93;;;6.60;;
15603;SDS011;7902;49.042;9.092;2023-07-08T03:34:11;25.33;;;5.50;;
15603;SDS011;7902;49.042;9.092;2023-07-08T03:36:46;24.60;;;6.10;;
15603;SDS011;7902;49.042;9.092;2023-07-08T03:39:17;24.70;;;5.60;;
15603;SDS011;7902;49.042;9.092;2023-07-08T03:41:47;30.00;;;6.40;;
15603;SDS011;7902;49.042;9.092;2023-07-08T03:44:14;25.73;;;6.33;;
15603;SDS011;7902;49.042;9.092;2023-07-08T03:46:44;28.00;;;6.67;;
15603;SDS011;7902;49.042;9.092;2023-07-08T03:49:11;27.03;;;6.03;;
15603;SDS011;7902;49.042;9.092;2023-07-08T03:51:38;30.97;;;6.47;;
15603;SDS011;7902;49.042;9.092;2023-07-08T03:54:06;27.33;;;7.00;;
15603;SDS011;7902;49.042;9.092;2023-07-08T03:56:36;28.23;;;6.53;;
15603;SDS011;7902;49.042;9.092;2023-07-08T03:59:02;24.30;;;6.40;;
15603;SDS011;7902;49.042;9.092;2023-07-08T04:01:28;26.30;;;6.33;;
15603;SDS011;7902;49.042;9.092;2023-07-08T04:03:55;26.53;;;5.57;;
15603;SDS011;7902;49.042;9.092;2023-07-08T04:06:22;26.00;;;6.57;;
15603;SDS011;7902;49.042;9.092;2023-07-08T04:08:49;28.27;;;6.43;;
15603;SDS011;7902;49.042;9.092;2023-07-08T04:11:16;28.77;;;6.73;;
15603;SDS011;7902;49.042;9.092;2023-07-08T04:13:44;27.40;;;6.57;;
15603;SDS011;7902;49.042;9.092;2023-07-08T04:16:14;30.77;;;6.60;;
15603;SDS011;7902;49.042;9.092;2023-07-08T04:18:44;26.93;;;6.97;;
15603;SDS011;7902;49.042;9.092;2023-07-08T04:21:10;25.90;;;6.17;;
15603;SDS011;7902;49.042;9.092;2023-07-08T04:23:36;26.70;;;6.30;;
15603;SDS011;7902;49.042;9.092;2023-07-08T04:26:02;27.07;;;6.10;;
15603;SDS011;7902;49.042;9.092;2023-07-08T04:28:28;30.90;;;6.10;;
15603;SDS011;7902;49.042;9.092;2023-07-08T04:30:54;27.70;;;6.47;;
15603;SDS011;7902;49.042;9.092;2023-07-08T04:33:20;28.03;;;6.57;;
15603;SDS011;7902;49.042;9.092;2023-07-08T04:35:46;29.23;;;6.10;;
15603;SDS011;7902;49.042;9.092;2023-07-08T04:38:20;28.10;;;6.10;;
15603;SDS011;7902;49.042;9.092;2023-07-08T04:40:48;25.77;;;5.93;;
15603;SDS011;7902;49.042;9.092;2023-07-08T04:43:16;31.23;;;7.20;;
15603;SDS011;7902;49.042;9.092;2023-07-08T04:45:45;34.23;;;6.33;;
15603;SDS011;7902;49.042;9.092;2023-07-08T04:48:13;26.17;;;6.90;;
15603;SDS011;7902;49.042;9.092;2023-07-08T04:50:44;25.40;;;6.63;;
15603;SDS011;7902;49.042;9.092;2023-07-08T04:53:11;26.93;;;6.67;;
15603;SDS011;7902;49.042;9.092;2023-07-08T04:55:38;28.03;;;6.17;;
15603;SDS011;7902;49.042;9.092;2023-07-08T04:58:06;29.13;;;7.80;;
15603;SDS011;7902;49.042;9.092;2023-07-08T05:00:32;29.00;;;6.80;;
15603;SDS011;7902;49.042;9.092;2023-07-08T05:02:58;26.67;;;6.13;;
15603;SDS011;7902;49.042;9.092;2023-07-08T05:05:24;26.10;;;6.43;;
15603;SDS011;7902;49.042;9.092;2023-07-08T05:07:50;39.00;;;6.70;;
15603;SDS011;7902;49.042;9.092;2023-07-08T05:10:16;43.33;;;7.10;;
15603;SDS011;7902;49.042;9.092;2023-07-08T05:12:43;30.07;;;6.13;;
15603;SDS011;7902;49.042;9.092;2023-07-08T05:15:10;32.20;;;7.00;;
15603;SDS011;7902;49.042;9.092;2023-07-08T05:17:37;24.87;;;6.03;;
15603;SDS011;7902;49.042;9.092;2023-07-08T05:20:05;26.70;;;7.20;;
15603;SDS011;7902;49.042;9.092;2023-07-08T05:22:33;37.23;;;7.47;;
15603;SDS011;7902;49.042;9.092;2023-07-08T05:25:00;26.63;;;6.90;;
15603;SDS011;7902;49.042;9.092;2023-07-08T05:27:26;25.70;;;7.20;;
15603;SDS011;7902;49.042;9.092;2023-07-08T05:29:52;26.67;;;6.57;;
15603;SDS011;7902;49.042;9.092;2023-07-08T05:32:18;25.23;;;6.30;;
15603;SDS011;7902;49.042;9.092;2023-07-08T05:34:45;26.80;;;7.00;;
15603;SDS011;7902;49.042;9.092;2023-07-08T05:37:12;29.90;;;7.20;;
15603;SDS011;7902;49.042;9.092;2023-07-08T05:39:38;27.00;;;7.27;;
15603;SDS011;7902;49.042;9.092;2023-07-08T05:42:05;26.60;;;6.23;;
15603;SDS011;7902;49.042;9.092;2023-07-08T05:44:31;31.70;;;7.27;;
15603;SDS011;7902;49.042;9.092;2023-07-08T05:46:57;35.43;;;6.93;;
15603;SDS011;7902;49.042;9.092;2023-07-08T05:49:23;31.43;;;6.97;;
15603;SDS011;7902;49.042;9.092;2023-07-08T05:51:49;30.23;;;7.37;;
15603;SDS011;7902;49.042;9.092;2023-07-08T05:54:14;30.30;;;6.70;;
15603;SDS011;7902;49.042;9.092;2023-07-08T05:56:40;37.40;;;6.50;;
15603;SDS011;7902;49.042;9.092;2023-07-08T05:59:06;28.73;;;6.90;;
15603;SDS011;7902;49.042;9.092;2023-07-08T06:01:32;32.20;;;6.40;;
15603;SDS011;7902;49.042;9.092;2023-07-08T06:03:58;26.10;;;6.40;;
15603;SDS011;7902;49.042;9.092;2023-07-08T06:06:25;27.03;;;5.97;;
15603;SDS011;7902;49.042;9.092;2023-07-08T06:08:52;25.30;;;6.37;;
15603;SDS011;7902;49.042;9.092;2023-07-08T06:11:18;25.50;;;5.73;;
15603;SDS011;7902;49.042;9.092;2023-07-08T06:13:44;25.60;;;5.87;;
15603;SDS011;7902;49.042;9.092;2023-07-08T06:16:11;36.43;;;6.50;;
15603;SDS011;7902;49.042;9.092;2023-07-08T06:18:37;28.43;;;5.93;;
15603;SDS011;7902;49.042;9.092;2023-07-08T06:21:02;26.90;;;6.50;;
15603;SDS011;7902;49.042;9.092;2023-07-08T06:23:28;29.13;;;6.97;;
15603;SDS011;7902;49.042;9.092;2023-07-08T06:25:55;30.03;;;7.30;;
15603;SDS011;7902;49.042;9.092;2023-07-08T06:28:21;31.40;;;6.87;;
15603;SDS011;7902;49.042;9.092;2023-07-08T06:30:48;30.60;;;7.13;;
15603;SDS011;7902;49.042;9.092;2023-07-08T06:33:14;35.07;;;7.03;;
15603;SDS011;7902;49.042;9.092;2023-07-08T06:35:41;27.20;;;7.27;;
15603;SDS011;7902;49.042;9.092;2023-07-08T06:38:07;28.97;;;7.97;;
15603;SDS011;7902;49.042;9.092;2023-07-08T06:40:34;44.27;;;8.10;;
15603;SDS011;7902;49.042;9.092;2023-07-08T06:43:01;25.50;;;6.90;;
15603;SDS011;7902;49.042;9.092;2023-07-08T06:45:28;33.03;;;7.53;;
15603;SDS011;7902;49.042;9.092;2023-07-08T06:47:54;31.77;;;7.07;;
15603;SDS011;7902;49.042;9.092;2023-07-08T06:50:20;31.30;;;7.87;;
15603;SDS011;7902;49.042;9.092;2023-07-08T06:52:46;28.87;;;7.87;;
15603;SDS011;7902;49.042;9.092;2023-07-08T06:55:12;26.87;;;6.77;;
15603;SDS011;7902;49.042;9.092;2023-07-08T06:57:39;39.43;;;7.07;;
15603;SDS011;7902;49.042;9.092;2023-07-08T07:00:06;30.53;;;6.83;;
15603;SDS011;7902;49.042;9.092;2023-07-08T07:02:33;28.77;;;7.40;;
15603;SDS011;7902;49.042;9.092;2023-07-08T07:05:00;33.60;;;7.47;;
15603;SDS011;7902;49.042;9.092;2023-07-08T07:07:26;25.70;;;6.67;;
15603;SDS011;7902;49.042;9.092;2023-07-08T07:09:53;29.47;;;6.27;;
15603;SDS011;7902;49.042;9.092;2023-07-08T07:12:20;29.47;;;6.80;;
15603;SDS011;7902;49.042;9.092;2023-07-08T07:14:46;29.10;;;7.17;;
15603;SDS011;7902;49.042;9.092;2023-07-08T07:17:12;29.67;;;7.20;;
15603;SDS011;7902;49.042;9.092;2023-07-08T07:19:38;42.20;;;7.40;;
15603;SDS011;7902;49.042;9.092;2023-07-08T07:22:04;26.73;;;7.37;;
15603;SDS011;7902;49.042;9.092;2023-07-08T07:24:30;26.17;;;5.57;;
15603;SDS011;7902;49.042;9.092;2023-07-08T07:26:56;25.67;;;6.20;;
15603;SDS011;7902;49.042;9.092;2023-07-08T07:29:22;32.10;;;6.70;;
15603;SDS011;7902;49.042;9.092;2023-07-08T07:31:49;25.57;;;6.30;;
15603;SDS011;7902;49.042;9.092;2023-07-08T07:34:15;25.13;;;6.10;;
15603;SDS011;7902;49.042;9.092;2023-07-08T07:36:41;29.07;;;6.97;;
15603;SDS011;7902;49.042;9.092;2023-07-08T07:39:07;24.93;;;6.07;;
15603;SDS011;7902;49.042;9.092;2023-07-08T07:41:32;28.17;;;6.20;;
15603;SDS011;7902;49.042;9.092;2023-07-08T07:43:58;27.75;;;6.68;;
15603;SDS011;7902;49.042;9.092;2023-07-08T07:46:24;34.80;;;6.90;;
15603;SDS011;7902;49.042;9.092;2023-07-08T07:48:50;25.70;;;5.47;;
15603;SDS011;7902;49.042;9.092;2023-07-08T07:51:16;30.98;;;6.60;;
15603;SDS011;7902;49.042;9.092;2023-07-08T07:53:42;26.92;;;6.53;;
15603;SDS011;7902;49.042;9.092;2023-07-08T07:56:08;36.13;;;6.43;;
15603;SDS011;7902;49.042;9.092;2023-07-08T07:58:34;25.33;;;5.63;;
15603;SDS011;7902;49.042;9.092;2023-07-08T08:01:00;30.05;;;6.55;;
15603;SDS011;7902;49.042;9.092;2023-07-08T08:03:26;25.20;;;5.90;;
15603;SDS011;7902;49.042;9.092;2023-07-08T08:05:52;24.98;;;6.38;;
15603;SDS011;7902;49.042;9.092;2023-07-08T08:08:18;25.23;;;6.07;;
15603;SDS011;7902;49.042;9.092;2023-07-08T08:10:44;30.17;;;6.55;;
15603;SDS011;7902;49.042;9.092;2023-07-08T08:13:10;29.60;;;6.28;;
15603;SDS011;7902;49.042;9.092;2023-07-08T08:15:37;25.35;;;5.93;;
15603;SDS011;7902;49.042;9.092;2023-07-08T08:18:03;26.85;;;6.07;;
15603;SDS011;7902;49.042;9.092;2023-07-08T08:20:29;26.73;;;6.03;;
15603;SDS011;7902;49.042;9.092;2023-07-08T08:22:55;24.73;;;6.20;;
15603;SDS011;7902;49.042;9.092;2023-07-08T08:25:22;23.45;;;5.80;;
15603;SDS011;7902;49.042;9.092;2023-07-08T08:27:49;26.27;;;6.15;;
15603;SDS011;7902;49.042;9.092;2023-07-08T08:30:17;31.33;;;6.25;;
15603;SDS011;7902;49.042;9.092;2023-07-08T08:32:43;27.95;;;5.95;;
15603;SDS011;7902;49.042;9.092;2023-07-08T08:35:09;26.60;;;5.47;;
15603;SDS011;7902;49.042;9.092;2023-07-08T08:37:35;26.17;;;6.55;;
15603;SDS011;7902;49.042;9.092;2023-07-08T08:40:01;26.75;;;7.00;;
15603;SDS011;7902;49.042;9.092;2023-07-08T08:42:44;25.92;;;6.10;;
15603;SDS011;7902;49.042;9.092;2023-07-08T08:45:25;26.23;;;6.20;;
15603;SDS011;7902;49.042;9.092;2023-07-08T08:47:54;27.45;;;6.10;;
15603;SDS011;7902;49.042;9.092;2023-07-08T08:50:36;27.73;;;6.35;;
15603;SDS011;7902;49.042;9.092;2023-07-08T08:53:10;26.00;;;5.85;;
15603;SDS011;7902;49.042;9.092;2023-07-08T08:55:38;23.90;;;5.72;;
15603;SDS011;7902;49.042;9.092;2023-07-08T08:58:16;33.42;;;6.25;;
15603;SDS011;7902;49.042;9.092;2023-07-08T09:00:54;25.90;;;6.57;;
15603;SDS011;7902;49.042;9.092;2023-07-08T09:04:05;24.80;;;6.07;;
15603;SDS011;7902;49.042;9.092;2023-07-08T09:06:25;25.30;;;6.20;;
15603;SDS011;7902;49.042;9.092;2023-07-08T09:08:53;34.60;;;6.35;;
15603;SDS011;7902;49.042;9.092;2023-07-08T09:14:19;25.77;;;6.35;;
15603;SDS011;7902;49.042;9.092;2023-07-08T09:19:40;33.88;;;6.55;;
15603;SDS011;7902;49.042;9.092;2023-07-08T09:22:12;30.25;;;5.72;;
15603;SDS011;7902;49.042;9.092;2023-07-08T09:24:43;23.15;;;5.57;;
15603;SDS011;7902;49.042;9.092;2023-07-08T09:27:14;28.38;;;6.30;;
15603;SDS011;7902;49.042;9.092;2023-07-08T09:29:39;44.08;;;5.85;;
15603;SDS011;7902;49.042;9.092;2023-07-08T09:32:12;26.05;;;5.88;;
15603;SDS011;7902;49.042;9.092;2023-07-08T09:34:49;27.63;;;6.35;;
15603;SDS011;7902;49.042;9.092;2023-07-08T09:37:20;27.13;;;5.65;;
15603;SDS011;7902;49.042;9.092;2023-07-08T09:39:46;24.88;;;6.07;;
15603;SDS011;7902;49.042;9.092;2023-07-08T09:42:12;26.85;;;5.30;;
15603;SDS011;7902;49.042;9.092;2023-07-08T09:44:40;28.05;;;6.38;;
15603;SDS011;7902;49.042;9.092;2023-07-08T09:47:17;25.30;;;5.63;;
15603;SDS011;7902;49.042;9.092;2023-07-08T09:49:46;24.65;;;6.10;;
15603;SDS011;7902;49.042;9.092;2023-07-08T09:52:12;24.65;;;5.78;;
15603;SDS011;7902;49.042;9.092;2023-07-08T09:54:40;26.45;;;5.88;;
15603;SDS011;7902;49.042;9.092;2023-07-08T09:57:11;23.77;;;5.43;;
15603;SDS011;7902;49.042;9.092;2023-07-08T09:59:55;30.20;;;5.93;;
15603;SDS011;7902;49.042;9.092;2023-07-08T10:04:53;33.33;;;6.90;;
15603;SDS011;7902;49.042;9.092;2023-07-08T10:07:20;29.02;;;5.75;;
15603;SDS011;7902;49.042;9.092;2023-07-08T10:09:47;29.58;;;5.72;;
15603;SDS011;7902;49.042;9.092;2023-07-08T10:12:19;23.58;;;5.78;;
15603;SDS011;7902;49.042;9.092;2023-07-08T10:14:47;28.63;;;6.15;;
15603;SDS011;7902;49.042;9.092;2023-07-08T10:17:16;24.25;;;5.93;;
15603;SDS011;7902;49.042;9.092;2023-07-08T10:19:44;42.90;;;6.10;;
15603;SDS011;7902;49.042;9.092;2023-07-08T10:25:02;28.83;;;6.63;;
15603;SDS011;7902;49.042;9.092;2023-07-08T10:35:25;24.67;;;5.40;;
15603;SDS011;7902;49.042;9.092;2023-07-08T10:41:00;24.70;;;5.38;;
15603;SDS011;7902;49.042;9.092;2023-07-08T10:43:38;25.08;;;4.70;;
15603;SDS011;7902;49.042;9.092;2023-07-08T10:46:26;31.17;;;5.82;;
15603;SDS011;7902;49.042;9.092;2023-07-08T10:59:38;24.48;;;5.82;;
15603;SDS011;7902;49.042;9.092;2023-07-08T11:10:22;25.67;;;5.28;;
15603;SDS011;7902;49.042;9.092;2023-07-08T11:12:58;25.67;;;5.35;;
15603;SDS011;7902;49.042;9.092;2023-07-08T11:18:42;23.13;;;5.13;;
15603;SDS011;7902;49.042;9.092;2023-07-08T11:21:17;25.48;;;4.60;;
15603;SDS011;7902;49.042;9.092;2023-07-08T11:29:11;34.67;;;4.55;;
15603;SDS011;7902;49.042;9.092;2023-07-08T11:31:44;28.05;;;5.07;;
15603;SDS011;7902;49.042;9.092;2023-07-08T11:34:12;25.20;;;5.13;;
15603;SDS011;7902;49.042;9.092;2023-07-08T11:36:40;30.88;;;4.60;;
15603;SDS011;7902;49.042;9.092;2023-07-08T11:41:55;30.02;;;5.50;;
15603;SDS011;7902;49.042;9.092;2023-07-08T11:44:32;26.77;;;5.03;;
15603;SDS011;7902;49.042;9.092;2023-07-08T11:46:59;23.73;;;5.25;;
15603;SDS011;7902;49.042;9.092;2023-07-08T11:49:25;26.40;;;4.90;;
15603;SDS011;7902;49.042;9.092;2023-07-08T11:51:51;23.75;;;4.93;;
15603;SDS011;7902;49.042;9.092;2023-07-08T11:54:30;25.02;;;4.60;;
15603;SDS011;7902;49.042;9.092;2023-07-08T11:56:58;27.00;;;4.20;;
15603;SDS011;7902;49.042;9.092;2023-07-08T11:59:41;36.05;;;4.80;;
15603;SDS011;7902;49.042;9.092;2023-07-08T12:02:14;25.02;;;4.93;;
15603;SDS011;7902;49.042;9.092;2023-07-08T12:07:43;23.15;;;4.45;;
15603;SDS011;7902;49.042;9.092;2023-07-08T12:10:18;27.70;;;4.20;;
15603;SDS011;7902;49.042;9.092;2023-07-08T12:12:51;29.92;;;4.20;;
15603;SDS011;7902;49.042;9.092;2023-07-08T12:15:22;23.83;;;4.70;;
15603;SDS011;7902;49.042;9.092;2023-07-08T12:20:45;21.55;;;4.45;;
15603;SDS011;7902;49.042;9.092;2023-07-08T12:23:15;24.55;;;5.75;;
15603;SDS011;7902;49.042;9.092;2023-07-08T12:25:43;21.63;;;4.70;;
15603;SDS011;7902;49.042;9.092;2023-07-08T12:28:10;28.60;;;4.97;;
15603;SDS011;7902;49.042;9.092;2023-07-08T12:30:38;22.35;;;4.30;;
15603;SDS011;7902;49.042;9.092;2023-07-08T12:33:08;20.98;;;4.05;;
15603;SDS011;7902;49.042;9.092;2023-07-08T12:35:37;21.90;;;4.57;;
15603;SDS011;7902;49.042;9.092;2023-07-08T12:38:05;20.90;;;4.05;;
15603;SDS011;7902;49.042;9.092;2023-07-08T12:40:45;20.15;;;2.97;;
15603;SDS011;7902;49.042;9.092;2023-07-08T12:43:11;22.55;;;3.85;;
15603;SDS011;7902;49.042;9.092;2023-07-08T12:45:38;33.47;;;4.00;;
15603;SDS011;7902;49.042;9.092;2023-07-08T12:48:04;21.58;;;4.13;;
15603;SDS011;7902;49.042;9.092;2023-07-08T12:50:30;29.50;;;3.28;;
15603;SDS011;7902;49.042;9.092;2023-07-08T12:52:56;22.70;;;4.50;;
15603;SDS011;7902;49.042;9.092;2023-07-08T12:55:22;25.42;;;3.88;;
15603;SDS011;7902;49.042;9.092;2023-07-08T12:57:49;25.23;;;3.67;;
15603;SDS011;7902;49.042;9.092;2023-07-08T13:00:25;24.42;;;3.85;;
15603;SDS011;7902;49.042;9.092;2023-07-08T13:02:57;22.05;;;4.35;;
15603;SDS011;7902;49.042;9.092;2023-07-08T13:05:37;23.08;;;4.45;;
15603;SDS011;7902;49.042;9.092;2023-07-08T13:08:05;18.95;;;3.63;;
15603;SDS011;7902;49.042;9.092;2023-07-08T13:10:32;20.10;;;3.28;;
15603;SDS011;7902;49.042;9.092;2023-07-08T13:13:01;23.85;;;3.90;;
15603;SDS011;7902;49.042;9.092;2023-07-08T13:15:32;24.13;;;3.65;;
15603;SDS011;7902;49.042;9.092;2023-07-08T13:18:05;19.70;;;3.20;;
15603;SDS011;7902;49.042;9.092;2023-07-08T13:20:38;18.08;;;3.60;;
15603;SDS011;7902;49.042;9.092;2023-07-08T13:23:04;21.98;;;3.22;;
15603;SDS011;7902;49.042;9.092;2023-07-08T13:25:31;17.67;;;2.97;;
15603;SDS011;7902;49.042;9.092;2023-07-08T13:27:59;18.10;;;3.03;;
15603;SDS011;7902;49.042;9.092;2023-07-08T13:30:28;20.02;;;3.15;;
15603;SDS011;7902;49.042;9.092;2023-07-08T13:32:56;18.33;;;3.28;;
15603;SDS011;7902;49.042;9.092;2023-07-08T13:35:24;20.67;;;3.63;;
15603;SDS011;7902;49.042;9.092;2023-07-08T13:38:01;21.65;;;3.08;;
15603;SDS011;7902;49.042;9.092;2023-07-08T13:40:28;17.88;;;3.28;;
15603;SDS011;7902;49.042;9.092;2023-07-08T13:42:55;19.10;;;3.38;;
15603;SDS011;7902;49.042;9.092;2023-07-08T13:45:22;31.27;;;3.67;;
15603;SDS011;7902;49.042;9.092;2023-07-08T13:48:52;22.30;;;3.10;;
15603;SDS011;7902;49.042;9.092;2023-07-08T13:50:51;18.90;;;3.40;;
15603;SDS011;7902;49.042;9.092;2023-07-08T13:53:27;19.42;;;4.03;;
15603;SDS011;7902;49.042;9.092;2023-07-08T13:56:12;22.80;;;3.88;;
15603;SDS011;7902;49.042;9.092;2023-07-08T13:58:44;19.88;;;3.42;;
15603;SDS011;7902;49.042;9.092;2023-07-08T14:01:16;22.70;;;3.08;;
15603;SDS011;7902;49.042;9.092;2023-07-08T14:03:45;21.77;;;2.92;;
15603;SDS011;7902;49.042;9.092;2023-07-08T14:06:14;21.25;;;3.10;;
15603;SDS011;7902;49.042;9.092;2023-07-08T14:08:53;19.90;;;3.03;;
15603;SDS011;7902;49.042;9.092;2023-07-08T14:11:23;17.50;;;2.60;;
15603;SDS011;7902;49.042;9.092;2023-07-08T14:13:49;21.73;;;3.58;;
15603;SDS011;7902;49.042;9.092;2023-07-08T14:16:21;17.15;;;2.67;;
15603;SDS011;7902;49.042;9.092;2023-07-08T14:18:50;17.80;;;3.00;;
15603;SDS011;7902;49.042;9.092;2023-07-08T14:21:17;20.52;;;2.97;;
15603;SDS011;7902;49.042;9.092;2023-07-08T14:23:43;19.40;;;3.08;;
15603;SDS011;7902;49.042;9.092;2023-07-08T14:26:10;19.70;;;3.60;;
15603;SDS011;7902;49.042;9.092;2023-07-08T14:28:37;19.23;;;3.22;;
15603;SDS011;7902;49.042;9.092;2023-07-08T14:31:03;25.15;;;3.38;;
15603;SDS011;7902;49.042;9.092;2023-07-08T14:33:34;19.88;;;3.15;;
15603;SDS011;7902;49.042;9.092;2023-07-08T14:36:00;20.38;;;2.90;;
15603;SDS011;7902;49.042;9.092;2023-07-08T14:38:26;19.88;;;3.83;;
15603;SDS011;7902;49.042;9.092;2023-07-08T14:40:51;25.00;;;3.28;;
15603;SDS011;7902;49.042;9.092;2023-07-08T14:43:18;21.65;;;3.70;;
15603;SDS011;7902;49.042;9.092;2023-07-08T14:45:50;37.13;;;4.53;;
15603;SDS011;7902;49.042;9.092;2023-07-08T14:48:19;21.48;;;3.20;;
15603;SDS011;7902;49.042;9.092;2023-07-08T14:50:45;18.20;;;3.45;;
15603;SDS011;7902;49.042;9.092;2023-07-08T14:53:13;21.83;;;3.50;;
15603;SDS011;7902;49.042;9.092;2023-07-08T14:55:39;19.83;;;3.00;;
15603;SDS011;7902;49.042;9.092;2023-07-08T14:58:06;17.65;;;3.00;;
15603;SDS011;7902;49.042;9.092;2023-07-08T15:00:32;22.00;;;3.25;;
15603;SDS011;7902;49.042;9.092;2023-07-08T15:02:58;16.60;;;3.00;;
15603;SDS011;7902;49.042;9.092;2023-07-08T15:05:25;22.13;;;3.20;;
15603;SDS011;7902;49.042;9.092;2023-07-08T15:07:54;17.67;;;2.80;;
15603;SDS011;7902;49.042;9.092;2023-07-08T15:10:25;17.75;;;2.75;;
15603;SDS011;7902;49.042;9.092;2023-07-08T15:12:54;23.92;;;2.97;;
15603;SDS011;7902;49.042;9.092;2023-07-08T15:15:30;16.73;;;2.65;;
15603;SDS011;7902;49.042;9.092;2023-07-08T15:17:58;22.23;;;3.17;;
15603;SDS011;7902;49.042;9.092;2023-07-08T15:20:26;16.73;;;2.90;;
15603;SDS011;7902;49.042;9.092;2023-07-08T15:22:52;18.17;;;3.22;;
15603;SDS011;7902;49.042;9.092;2023-07-08T15:25:18;17.17;;;2.60;;
15603;SDS011;7902;49.042;9.092;2023-07-08T15:27:45;20.88;;;2.92;;
15603;SDS011;7902;49.042;9.092;2023-07-08T15:30:22;17.20;;;2.53;;
15603;SDS011;7902;49.042;9.092;2023-07-08T15:32:52;20.85;;;2.50;;
15603;SDS011;7902;49.042;9.092;2023-07-08T15:35:20;17.55;;;2.80;;
15603;SDS011;7902;49.042;9.092;2023-07-08T15:37:50;18.70;;;3.30;;
15603;SDS011;7902;49.042;9.092;2023-07-08T15:40:17;19.85;;;2.78;;
15603;SDS011;7902;49.042;9.092;2023-07-08T15:42:45;15.35;;;2.67;;
15603;SDS011;7902;49.042;9.092;2023-07-08T15:45:14;16.33;;;2.70;;
15603;SDS011;7902;49.042;9.092;2023-07-08T15:47:43;16.15;;;2.78;;
15603;SDS011;7902;49.042;9.092;2023-07-08T15:50:10;18.27;;;2.65;;
15603;SDS011;7902;49.042;9.092;2023-07-08T15:52:40;16.17;;;2.65;;
15603;SDS011;7902;49.042;9.092;2023-07-08T15:55:10;18.35;;;2.38;;
15603;SDS011;7902;49.042;9.092;2023-07-08T16:00:13;15.38;;;2.47;;
15603;SDS011;7902;49.042;9.092;2023-07-08T16:02:51;17.13;;;2.30;;